sensor_id;sensor_type;location;lat;lon;timestamp;temperature;humidity
22676;DHT22;12521;43.310;21.876;2023-05-10T00:00:14;13.9;96.0
22676;DHT22;12521;43.310;21.876;2023-05-10T00:04:51;13.9;96.0
22676;DHT22;12521;43.310;21.876;2023-05-10T00:09:27;13.8;96.0
22676;DHT22;12521;43.310;21.876;2023-05-10T00:14:04;13.8;96.0
22676;DHT22;12521;43.310;21.876;2023-05-10T00:18:40;13.8;96.0
22676;DHT22;12521;43.310;21.876;2023-05-10T00:23:17;13.8;96.0
22676;DHT22;12521;43.310;21.876;2023-05-10T00:27:54;13.8;96.0
22676;DHT22;12521;43.310;21.876;2023-05-10T00:32:32;13.8;96.0
22676;DHT22;12521;43.310;21.876;2023-05-10T00:37:09;13.7;96.0
22676;DHT22;12521;43.310;21.876;2023-05-10T00:41:45;13.7;96.0
22676;DHT22;12521;43.310;21.876;2023-05-10T00:46:23;13.7;96.0
22676;DHT22;12521;43.310;21.876;2023-05-10T00:51:03;13.7;96.0
22676;DHT22;12521;43.310;21.876;2023-05-10T00:55:41;13.7;96.0
22676;DHT22;12521;43.310;21.876;2023-05-10T01:00:20;13.7;96.0
22676;DHT22;12521;43.310;21.876;2023-05-10T01:04:59;13.7;96.0
22676;DHT22;12521;43.310;21.876;2023-05-10T01:09:39;13.7;96.0
22676;DHT22;12521;43.310;21.876;2023-05-10T01:14:20;13.7;96.0
22676;DHT22;12521;43.310;21.876;2023-05-10T01:18:58;13.7;96.0
22676;DHT22;12521;43.310;21.876;2023-05-10T01:24:35;13.7;96.0
22676;DHT22;12521;43.310;21.876;2023-05-10T01:31:03;13.6;96.0
22676;DHT22;12521;43.310;21.876;2023-05-10T01:36:19;13.6;96.0
22676;DHT22;12521;43.310;21.876;2023-05-10T01:41:25;13.6;96.0
22676;DHT22;12521;43.310;21.876;2023-05-10T01:46:37;13.6;96.0
22676;DHT22;12521;43.310;21.876;2023-05-10T01:51:26;13.6;96.0
22676;DHT22;12521;43.310;21.876;2023-05-10T01:56:28;13.6;96.0
22676;DHT22;12521;43.310;21.876;2023-05-10T02:01:15;13.5;96.0
22676;DHT22;12521;43.310;21.876;2023-05-10T02:06:03;13.5;96.0
22676;DHT22;12521;43.310;21.876;2023-05-10T02:10:56;13.6;96.0
22676;DHT22;12521;43.310;21.876;2023-05-10T02:15:41;13.6;96.0
22676;DHT22;12521;43.310;21.876;2023-05-10T02:20:27;13.6;96.0
22676;DHT22;12521;43.310;21.876;2023-05-10T02:25:14;13.6;96.0
22676;DHT22;12521;43.310;21.876;2023-05-10T02:29:54;13.6;96.0
22676;DHT22;12521;43.310;21.876;2023-05-10T02:34:34;13.6;96.0
22676;DHT22;12521;43.310;21.876;2023-05-10T02:39:15;13.5;96.0
22676;DHT22;12521;43.310;21.876;2023-05-10T02:44:02;13.5;96.0
22676;DHT22;12521;43.310;21.876;2023-05-10T02:48:44;13.4;96.0
22676;DHT22;12521;43.310;21.876;2023-05-10T02:53:31;13.4;96.0
22676;DHT22;12521;43.310;21.876;2023-05-10T02:58:11;13.4;96.0
22676;DHT22;12521;43.310;21.876;2023-05-10T03:02:48;13.4;96.0
22676;DHT22;12521;43.310;21.876;2023-05-10T03:07:25;13.4;96.0
22676;DHT22;12521;43.310;21.876;2023-05-10T03:12:19;13.4;96.0
22676;DHT22;12521;43.310;21.876;2023-05-10T03:17:55;13.4;96.0
22676;DHT22;12521;43.310;21.876;2023-05-10T03:23:05;13.4;96.0
22676;DHT22;12521;43.310;21.876;2023-05-10T03:28:05;13.4;96.0
22676;DHT22;12521;43.310;21.876;2023-05-10T03:32:44;13.4;96.0
22676;DHT22;12521;43.310;21.876;2023-05-10T03:37:21;13.3;96.0
22676;DHT22;12521;43.310;21.876;2023-05-10T03:41:57;13.3;96.0
22676;DHT22;12521;43.310;21.876;2023-05-10T03:46:34;13.3;96.0
22676;DHT22;12521;43.310;21.876;2023-05-10T03:51:10;13.2;96.0
22676;DHT22;12521;43.310;21.876;2023-05-10T03:55:47;13.2;96.0
22676;DHT22;12521;43.310;21.876;2023-05-10T04:00:23;13.2;96.0
22676;DHT22;12521;43.310;21.876;2023-05-10T04:05:00;13.2;96.0
22676;DHT22;12521;43.310;21.876;2023-05-10T04:09:37;13.2;96.0
22676;DHT22;12521;43.310;21.876;2023-05-10T04:14:13;13.2;96.0
22676;DHT22;12521;43.310;21.876;2023-05-10T04:18:50;13.2;96.0
22676;DHT22;12521;43.310;21.876;2023-05-10T04:23:27;13.2;96.0
22676;DHT22;12521;43.310;21.876;2023-05-10T04:28:04;13.2;96.0
22676;DHT22;12521;43.310;21.876;2023-05-10T04:32:41;13.2;96.0
22676;DHT22;12521;43.310;21.876;2023-05-10T04:37:18;13.2;96.0
22676;DHT22;12521;43.310;21.876;2023-05-10T04:41:54;13.2;96.0
22676;DHT22;12521;43.310;21.876;2023-05-10T04:46:31;13.2;96.0
22676;DHT22;12521;43.310;21.876;2023-05-10T04:51:08;13.2;96.0
22676;DHT22;12521;43.310;21.876;2023-05-10T04:55:44;13.2;96.0
22676;DHT22;12521;43.310;21.876;2023-05-10T05:00:21;13.2;96.0
22676;DHT22;12521;43.310;21.876;2023-05-10T05:04:58;13.2;96.0
22676;DHT22;12521;43.310;21.876;2023-05-10T05:09:34;13.2;96.0
22676;DHT22;12521;43.310;21.876;2023-05-10T05:14:10;13.2;96.0
22676;DHT22;12521;43.310;21.876;2023-05-10T05:18:46;13.3;96.0
22676;DHT22;12521;43.310;21.876;2023-05-10T05:23:23;13.3;96.0
22676;DHT22;12521;43.310;21.876;2023-05-10T05:27:59;13.4;96.0
22676;DHT22;12521;43.310;21.876;2023-05-10T05:32:35;13.4;96.0
22676;DHT22;12521;43.310;21.876;2023-05-10T05:37:14;13.4;96.0
22676;DHT22;12521;43.310;21.876;2023-05-10T05:41:52;13.4;96.0
22676;DHT22;12521;43.310;21.876;2023-05-10T05:46:29;13.4;96.0
22676;DHT22;12521;43.310;21.876;2023-05-10T05:51:06;13.6;96.0
22676;DHT22;12521;43.310;21.876;2023-05-10T05:55:53;13.6;96.0
22676;DHT22;12521;43.310;21.876;2023-05-10T06:00:34;13.7;96.0
22676;DHT22;12521;43.310;21.876;2023-05-10T06:05:11;13.7;96.0
22676;DHT22;12521;43.310;21.876;2023-05-10T06:09:48;13.6;96.0
22676;DHT22;12521;43.310;21.876;2023-05-10T06:14:24;13.6;96.0
22676;DHT22;12521;43.310;21.876;2023-05-10T06:19:02;13.6;96.0
22676;DHT22;12521;43.310;21.876;2023-05-10T06:23:39;13.6;96.0
22676;DHT22;12521;43.310;21.876;2023-05-10T06:28:15;13.6;96.0
22676;DHT22;12521;43.310;21.876;2023-05-10T06:32:52;13.6;96.0
22676;DHT22;12521;43.310;21.876;2023-05-10T06:37:29;13.7;96.0
22676;DHT22;12521;43.310;21.876;2023-05-10T06:42:05;13.7;96.0
22676;DHT22;12521;43.310;21.876;2023-05-10T06:46:42;13.7;96.0
22676;DHT22;12521;43.310;21.876;2023-05-10T06:51:18;13.6;96.0
22676;DHT22;12521;43.310;21.876;2023-05-10T06:55:55;13.6;96.0
22676;DHT22;12521;43.310;21.876;2023-05-10T07:00:31;13.4;96.0
22676;DHT22;12521;43.310;21.876;2023-05-10T07:05:09;13.4;96.0
22676;DHT22;12521;43.310;21.876;2023-05-10T07:09:46;13.4;96.0
22676;DHT22;12521;43.310;21.876;2023-05-10T07:14:23;13.4;96.0
22676;DHT22;12521;43.310;21.876;2023-05-10T07:19:00;13.3;96.0
22676;DHT22;12521;43.310;21.876;2023-05-10T07:23:36;13.3;96.0
22676;DHT22;12521;43.310;21.876;2023-05-10T07:28:15;13.3;96.0
22676;DHT22;12521;43.310;21.876;2023-05-10T07:32:52;13.3;96.0
22676;DHT22;12521;43.310;21.876;2023-05-10T07:37:29;13.3;96.0
22676;DHT22;12521;43.310;21.876;2023-05-10T07:42:05;13.3;96.0
22676;DHT22;12521;43.310;21.876;2023-05-10T07:46:42;13.3;96.0
22676;DHT22;12521;43.310;21.876;2023-05-10T07:51:19;13.4;96.0
22676;DHT22;12521;43.310;21.876;2023-05-10T07:55:58;13.4;96.0
22676;DHT22;12521;43.310;21.876;2023-05-10T08:00:35;13.6;96.0
22676;DHT22;12521;43.310;21.876;2023-05-10T08:05:12;13.6;96.0
22676;DHT22;12521;43.310;21.876;2023-05-10T08:09:49;13.6;96.0
22676;DHT22;12521;43.310;21.876;2023-05-10T08:14:28;13.6;96.0
22676;DHT22;12521;43.310;21.876;2023-05-10T08:19:05;13.7;96.0
22676;DHT22;12521;43.310;21.876;2023-05-10T08:23:42;13.7;96.0
22676;DHT22;12521;43.310;21.876;2023-05-10T08:28:19;13.7;96.0
22676;DHT22;12521;43.310;21.876;2023-05-10T08:32:55;13.7;96.0
22676;DHT22;12521;43.310;21.876;2023-05-10T08:37:32;13.7;96.0
22676;DHT22;12521;43.310;21.876;2023-05-10T08:42:10;13.7;96.0
22676;DHT22;12521;43.310;21.876;2023-05-10T08:47:02;13.7;96.0
22676;DHT22;12521;43.310;21.876;2023-05-10T08:51:55;13.8;96.0
22676;DHT22;12521;43.310;21.876;2023-05-10T08:56:40;13.8;96.0
22676;DHT22;12521;43.310;21.876;2023-05-10T09:01:21;14.0;96.0
22676;DHT22;12521;43.310;21.876;2023-05-10T09:06:03;14.0;96.0
22676;DHT22;12521;43.310;21.876;2023-05-10T09:10:43;14.1;96.0
22676;DHT22;12521;43.310;21.876;2023-05-10T09:15:23;14.1;96.0
22676;DHT22;12521;43.310;21.876;2023-05-10T09:20:04;14.2;96.0
22676;DHT22;12521;43.310;21.876;2023-05-10T09:24:43;14.2;96.0
22676;DHT22;12521;43.310;21.876;2023-05-10T09:29:20;14.2;96.0
22676;DHT22;12521;43.310;21.876;2023-05-10T09:33:56;14.2;96.0
22676;DHT22;12521;43.310;21.876;2023-05-10T09:38:47;14.2;96.0
22676;DHT22;12521;43.310;21.876;2023-05-10T09:43:28;14.2;96.0
22676;DHT22;12521;43.310;21.876;2023-05-10T09:48:14;14.2;96.0
22676;DHT22;12521;43.310;21.876;2023-05-10T09:52:55;14.2;96.0
22676;DHT22;12521;43.310;21.876;2023-05-10T09:57:39;14.3;96.0
22676;DHT22;12521;43.310;21.876;2023-05-10T10:02:17;14.3;96.0
22676;DHT22;12521;43.310;21.876;2023-05-10T10:07:04;14.3;96.0
22676;DHT22;12521;43.310;21.876;2023-05-10T10:11:41;14.5;96.0
22676;DHT22;12521;43.310;21.876;2023-05-10T10:16:18;14.5;96.0
22676;DHT22;12521;43.310;21.876;2023-05-10T10:20:58;14.7;96.0
22676;DHT22;12521;43.310;21.876;2023-05-10T10:25:37;14.7;96.0
22676;DHT22;12521;43.310;21.876;2023-05-10T10:30:36;15.1;96.0
22676;DHT22;12521;43.310;21.876;2023-05-10T10:35:18;15.1;96.0
22676;DHT22;12521;43.310;21.876;2023-05-10T10:39:56;15.5;96.0
22676;DHT22;12521;43.310;21.876;2023-05-10T10:44:37;15.5;96.0
22676;DHT22;12521;43.310;21.876;2023-05-10T10:49:15;15.6;96.0
22676;DHT22;12521;43.310;21.876;2023-05-10T10:53:51;15.6;96.0
22676;DHT22;12521;43.310;21.876;2023-05-10T10:58:31;15.6;96.0
22676;DHT22;12521;43.310;21.876;2023-05-10T11:03:13;15.6;96.0
22676;DHT22;12521;43.310;21.876;2023-05-10T11:07:54;15.7;96.0
22676;DHT22;12521;43.310;21.876;2023-05-10T11:12:53;15.7;96.0
22676;DHT22;12521;43.310;21.876;2023-05-10T11:17:39;15.8;96.0
22676;DHT22;12521;43.310;21.876;2023-05-10T11:22:16;15.8;96.0
22676;DHT22;12521;43.310;21.876;2023-05-10T11:26:53;15.8;96.0
22676;DHT22;12521;43.310;21.876;2023-05-10T11:31:32;16.0;96.0
22676;DHT22;12521;43.310;21.876;2023-05-10T11:36:23;16.0;96.0
22676;DHT22;12521;43.310;21.876;2023-05-10T11:41:05;16.1;96.0
22676;DHT22;12521;43.310;21.876;2023-05-10T11:45:45;16.1;96.0
22676;DHT22;12521;43.310;21.876;2023-05-10T11:50:22;16.3;96.0
22676;DHT22;12521;43.310;21.876;2023-05-10T11:54:59;16.3;96.0
22676;DHT22;12521;43.310;21.876;2023-05-10T11:59:36;16.5;96.0
22676;DHT22;12521;43.310;21.876;2023-05-10T12:04:13;16.5;96.0
22676;DHT22;12521;43.310;21.876;2023-05-10T12:08:50;16.7;96.0
22676;DHT22;12521;43.310;21.876;2023-05-10T12:13:26;16.7;96.0
22676;DHT22;12521;43.310;21.876;2023-05-10T12:18:05;16.9;96.0
22676;DHT22;12521;43.310;21.876;2023-05-10T12:22:50;16.9;96.0
22676;DHT22;12521;43.310;21.876;2023-05-10T12:27:32;16.9;96.0
22676;DHT22;12521;43.310;21.876;2023-05-10T12:32:09;16.9;96.0
22676;DHT22;12521;43.310;21.876;2023-05-10T12:36:50;16.9;96.0
22676;DHT22;12521;43.310;21.876;2023-05-10T12:41:28;16.9;96.0
22676;DHT22;12521;43.310;21.876;2023-05-10T12:46:09;16.9;96.0
22676;DHT22;12521;43.310;21.876;2023-05-10T12:50:50;17.1;96.0
22676;DHT22;12521;43.310;21.876;2023-05-10T12:55:27;17.1;96.0
22676;DHT22;12521;43.310;21.876;2023-05-10T13:00:08;17.3;96.0
22676;DHT22;12521;43.310;21.876;2023-05-10T13:04:48;17.3;96.0
22676;DHT22;12521;43.310;21.876;2023-05-10T13:09:27;17.5;96.0
22676;DHT22;12521;43.310;21.876;2023-05-10T13:14:03;17.5;96.0
22676;DHT22;12521;43.310;21.876;2023-05-10T13:18:40;17.6;96.0
22676;DHT22;12521;43.310;21.876;2023-05-10T13:23:16;17.6;96.0
22676;DHT22;12521;43.310;21.876;2023-05-10T13:27:52;17.8;96.0
22676;DHT22;12521;43.310;21.876;2023-05-10T13:32:29;17.8;96.0
22676;DHT22;12521;43.310;21.876;2023-05-10T13:37:06;17.8;96.0
22676;DHT22;12521;43.310;21.876;2023-05-10T13:41:42;18.0;96.0
22676;DHT22;12521;43.310;21.876;2023-05-10T13:46:19;18.0;96.0
22676;DHT22;12521;43.310;21.876;2023-05-10T13:50:56;18.0;96.0
22676;DHT22;12521;43.310;21.876;2023-05-10T13:55:33;18.0;96.0
22676;DHT22;12521;43.310;21.876;2023-05-10T14:00:12;18.0;96.0
22676;DHT22;12521;43.310;21.876;2023-05-10T14:04:51;18.0;96.0
22676;DHT22;12521;43.310;21.876;2023-05-10T14:09:28;17.9;96.0
22676;DHT22;12521;43.310;21.876;2023-05-10T14:14:05;17.9;96.0
22676;DHT22;12521;43.310;21.876;2023-05-10T14:18:41;17.8;96.0
22676;DHT22;12521;43.310;21.876;2023-05-10T14:23:18;17.8;96.0
22676;DHT22;12521;43.310;21.876;2023-05-10T14:27:55;17.8;96.0
22676;DHT22;12521;43.310;21.876;2023-05-10T14:32:31;17.8;96.0
22676;DHT22;12521;43.310;21.876;2023-05-10T14:37:13;17.8;96.0
22676;DHT22;12521;43.310;21.876;2023-05-10T14:41:50;17.8;96.0
22676;DHT22;12521;43.310;21.876;2023-05-10T14:46:26;17.8;96.0
22676;DHT22;12521;43.310;21.876;2023-05-10T14:51:03;17.8;96.0
22676;DHT22;12521;43.310;21.876;2023-05-10T14:55:39;17.8;96.0
22676;DHT22;12521;43.310;21.876;2023-05-10T15:00:19;17.7;96.0
22676;DHT22;12521;43.310;21.876;2023-05-10T15:04:57;17.7;96.0
22676;DHT22;12521;43.310;21.876;2023-05-10T15:09:34;17.6;96.0
22676;DHT22;12521;43.310;21.876;2023-05-10T15:14:11;17.6;96.0
22676;DHT22;12521;43.310;21.876;2023-05-10T15:18:48;17.5;96.0
22676;DHT22;12521;43.310;21.876;2023-05-10T15:23:25;17.5;96.0
22676;DHT22;12521;43.310;21.876;2023-05-10T15:28:02;17.4;96.0
22676;DHT22;12521;43.310;21.876;2023-05-10T15:32:40;17.4;96.0
22676;DHT22;12521;43.310;21.876;2023-05-10T15:37:17;17.4;96.0
22676;DHT22;12521;43.310;21.876;2023-05-10T15:41:53;17.3;96.0
22676;DHT22;12521;43.310;21.876;2023-05-10T15:46:30;17.3;96.0
22676;DHT22;12521;43.310;21.876;2023-05-10T15:51:07;17.2;96.0
22676;DHT22;12521;43.310;21.876;2023-05-10T15:55:43;17.2;96.0
22676;DHT22;12521;43.310;21.876;2023-05-10T16:00:20;17.0;96.0
22676;DHT22;12521;43.310;21.876;2023-05-10T16:04:56;17.0;96.0
22676;DHT22;12521;43.310;21.876;2023-05-10T16:09:32;16.8;96.0
22676;DHT22;12521;43.310;21.876;2023-05-10T16:14:09;16.8;96.0
22676;DHT22;12521;43.310;21.876;2023-05-10T16:18:45;16.6;96.0
22676;DHT22;12521;43.310;21.876;2023-05-10T16:23:22;16.6;96.0
22676;DHT22;12521;43.310;21.876;2023-05-10T16:28:00;16.6;96.0
22676;DHT22;12521;43.310;21.876;2023-05-10T16:32:37;16.6;96.0
22676;DHT22;12521;43.310;21.876;2023-05-10T16:37:13;16.6;96.0
22676;DHT22;12521;43.310;21.876;2023-05-10T16:41:50;16.5;96.0
22676;DHT22;12521;43.310;21.876;2023-05-10T16:46:27;16.5;96.0
22676;DHT22;12521;43.310;21.876;2023-05-10T16:51:04;16.4;96.0
22676;DHT22;12521;43.310;21.876;2023-05-10T16:55:41;16.4;96.0
22676;DHT22;12521;43.310;21.876;2023-05-10T17:00:19;16.4;96.0
22676;DHT22;12521;43.310;21.876;2023-05-10T17:04:56;16.4;96.0
22676;DHT22;12521;43.310;21.876;2023-05-10T17:09:33;16.2;96.0
22676;DHT22;12521;43.310;21.876;2023-05-10T17:14:09;16.2;96.0
22676;DHT22;12521;43.310;21.876;2023-05-10T17:18:46;16.1;96.0
22676;DHT22;12521;43.310;21.876;2023-05-10T17:23:23;16.1;96.0
22676;DHT22;12521;43.310;21.876;2023-05-10T17:27:59;16.0;96.0
22676;DHT22;12521;43.310;21.876;2023-05-10T17:32:36;16.0;96.0
22676;DHT22;12521;43.310;21.876;2023-05-10T17:37:12;16.0;96.0
22676;DHT22;12521;43.310;21.876;2023-05-10T17:41:48;15.8;96.0
22676;DHT22;12521;43.310;21.876;2023-05-10T17:46:25;15.8;96.0
22676;DHT22;12521;43.310;21.876;2023-05-10T17:51:02;15.6;96.0
22676;DHT22;12521;43.310;21.876;2023-05-10T17:55:41;15.6;96.0
22676;DHT22;12521;43.310;21.876;2023-05-10T18:00:19;15.5;96.0
22676;DHT22;12521;43.310;21.876;2023-05-10T18:04:56;15.5;96.0
22676;DHT22;12521;43.310;21.876;2023-05-10T18:09:33;15.4;96.0
22676;DHT22;12521;43.310;21.876;2023-05-10T18:14:09;15.4;96.0
22676;DHT22;12521;43.310;21.876;2023-05-10T18:18:46;15.4;96.0
22676;DHT22;12521;43.310;21.876;2023-05-10T18:23:23;15.4;96.0
22676;DHT22;12521;43.310;21.876;2023-05-10T18:28:00;15.2;96.0
22676;DHT22;12521;43.310;21.876;2023-05-10T18:32:36;15.2;96.0
22676;DHT22;12521;43.310;21.876;2023-05-10T18:37:13;15.2;96.0
22676;DHT22;12521;43.310;21.876;2023-05-10T18:41:49;15.1;96.0
22676;DHT22;12521;43.310;21.876;2023-05-10T18:46:26;15.1;96.0
22676;DHT22;12521;43.310;21.876;2023-05-10T18:51:02;15.0;96.0
22676;DHT22;12521;43.310;21.876;2023-05-10T18:55:39;15.0;96.0
22676;DHT22;12521;43.310;21.876;2023-05-10T19:00:15;15.0;96.0
22676;DHT22;12521;43.310;21.876;2023-05-10T19:04:52;15.0;96.0
22676;DHT22;12521;43.310;21.876;2023-05-10T19:09:28;15.0;96.0
22676;DHT22;12521;43.310;21.876;2023-05-10T19:14:05;15.0;96.0
22676;DHT22;12521;43.310;21.876;2023-05-10T19:18:42;15.0;96.0
22676;DHT22;12521;43.310;21.876;2023-05-10T19:23:19;15.0;96.0
22676;DHT22;12521;43.310;21.876;2023-05-10T19:27:56;14.9;96.0
22676;DHT22;12521;43.310;21.876;2023-05-10T19:32:33;14.9;96.0
22676;DHT22;12521;43.310;21.876;2023-05-10T19:37:10;14.9;96.0
22676;DHT22;12521;43.310;21.876;2023-05-10T19:41:47;14.8;96.0
22676;DHT22;12521;43.310;21.876;2023-05-10T19:46:23;14.8;96.0
22676;DHT22;12521;43.310;21.876;2023-05-10T19:51:04;14.8;96.0
22676;DHT22;12521;43.310;21.876;2023-05-10T19:55:41;14.8;96.0
22676;DHT22;12521;43.310;21.876;2023-05-10T20:00:18;14.8;96.0
22676;DHT22;12521;43.310;21.876;2023-05-10T20:04:54;14.8;96.0
22676;DHT22;12521;43.310;21.876;2023-05-10T20:09:31;14.8;96.0
22676;DHT22;12521;43.310;21.876;2023-05-10T20:14:08;14.8;96.0
22676;DHT22;12521;43.310;21.876;2023-05-10T20:18:44;14.7;96.0
22676;DHT22;12521;43.310;21.876;2023-05-10T20:23:22;14.7;96.0
22676;DHT22;12521;43.310;21.876;2023-05-10T20:27:58;14.6;96.0
22676;DHT22;12521;43.310;21.876;2023-05-10T20:32:37;14.6;96.0
22676;DHT22;12521;43.310;21.876;2023-05-10T20:37:14;14.6;96.0
22676;DHT22;12521;43.310;21.876;2023-05-10T20:41:51;14.6;96.0
22676;DHT22;12521;43.310;21.876;2023-05-10T20:46:28;14.6;96.0
22676;DHT22;12521;43.310;21.876;2023-05-10T20:51:05;14.6;96.0
22676;DHT22;12521;43.310;21.876;2023-05-10T20:55:41;14.6;96.0
22676;DHT22;12521;43.310;21.876;2023-05-10T21:00:20;14.6;96.0
22676;DHT22;12521;43.310;21.876;2023-05-10T21:04:58;14.6;96.0
22676;DHT22;12521;43.310;21.876;2023-05-10T21:09:34;14.6;96.0
22676;DHT22;12521;43.310;21.876;2023-05-10T21:14:11;14.6;96.0
22676;DHT22;12521;43.310;21.876;2023-05-10T21:18:47;14.5;96.0
22676;DHT22;12521;43.310;21.876;2023-05-10T21:23:25;14.5;96.0
22676;DHT22;12521;43.310;21.876;2023-05-10T21:28:01;14.5;96.0
22676;DHT22;12521;43.310;21.876;2023-05-10T21:32:37;14.5;96.0
22676;DHT22;12521;43.310;21.876;2023-05-10T21:37:15;14.5;96.0
22676;DHT22;12521;43.310;21.876;2023-05-10T21:41:51;14.5;96.0
22676;DHT22;12521;43.310;21.876;2023-05-10T21:46:28;14.5;96.0
22676;DHT22;12521;43.310;21.876;2023-05-10T21:51:06;14.4;96.0
22676;DHT22;12521;43.310;21.876;2023-05-10T21:55:43;14.4;96.0
22676;DHT22;12521;43.310;21.876;2023-05-10T22:00:19;14.4;96.0
22676;DHT22;12521;43.310;21.876;2023-05-10T22:04:56;14.4;96.0
22676;DHT22;12521;43.310;21.876;2023-05-10T22:09:33;14.4;96.0
22676;DHT22;12521;43.310;21.876;2023-05-10T22:14:10;14.4;96.0
22676;DHT22;12521;43.310;21.876;2023-05-10T22:18:47;14.3;96.0
22676;DHT22;12521;43.310;21.876;2023-05-10T22:23:24;14.3;96.0
22676;DHT22;12521;43.310;21.876;2023-05-10T22:28:01;14.3;96.0
22676;DHT22;12521;43.310;21.876;2023-05-10T22:32:37;14.3;96.0
22676;DHT22;12521;43.310;21.876;2023-05-10T22:37:15;14.3;96.0
22676;DHT22;12521;43.310;21.876;2023-05-10T22:41:52;14.3;96.0
22676;DHT22;12521;43.310;21.876;2023-05-10T22:46:30;14.3;96.0
22676;DHT22;12521;43.310;21.876;2023-05-10T22:51:08;14.2;96.0
22676;DHT22;12521;43.310;21.876;2023-05-10T22:55:44;14.2;96.0
22676;DHT22;12521;43.310;21.876;2023-05-10T23:00:21;14.2;96.0
22676;DHT22;12521;43.310;21.876;2023-05-10T23:04:59;14.2;96.0
22676;DHT22;12521;43.310;21.876;2023-05-10T23:09:36;14.2;96.0
22676;DHT22;12521;43.310;21.876;2023-05-10T23:14:12;14.2;96.0
22676;DHT22;12521;43.310;21.876;2023-05-10T23:18:49;14.3;96.0
22676;DHT22;12521;43.310;21.876;2023-05-10T23:23:26;14.3;96.0
22676;DHT22;12521;43.310;21.876;2023-05-10T23:28:04;14.2;96.0
22676;DHT22;12521;43.310;21.876;2023-05-10T23:32:41;14.2;96.0
22676;DHT22;12521;43.310;21.876;2023-05-10T23:37:18;14.2;96.0
22676;DHT22;12521;43.310;21.876;2023-05-10T23:41:55;14.2;96.0
22676;DHT22;12521;43.310;21.876;2023-05-10T23:46:31;14.2;96.0
22676;DHT22;12521;43.310;21.876;2023-05-10T23:51:08;14.2;96.0
22676;DHT22;12521;43.310;21.876;2023-05-10T23:55:44;14.2;96.0
